Time;durP1;ratioP1;P1;durP2;ratioP2;P2;SDS_P1;SDS_P2;PMS_P1;PMS_P2;Temp;Humidity;BMP_temperature;BMP_pressure;BME280_temperature;BME280_humidity;BME280_pressure;Samples;Min_cycle;Max_cycle;Signal;HPM_P1;HPM_P2
2021/09/21 00:02:05;;;;;;;7.45;4.05;;;;;;;;;;5039204;28;20101;-88
2021/09/21 00:04:30;;;;;;;7.20;3.75;;;;;;;;;;5037325;28;20029;-88
2021/09/21 00:06:56;;;;;;;9.38;3.28;;;;;;;;;;5032268;28;20048;-88
2021/09/21 00:09:22;;;;;;;9.75;3.60;;;;;;;;;;5036002;28;20120;-88
2021/09/21 00:11:47;;;;;;;8.32;3.72;;;;;;;;;;5037390;28;20021;-88
2021/09/21 00:14:13;;;;;;;7.53;4.25;;;;;;;;;;5032995;28;20029;-88
2021/09/21 00:16:38;;;;;;;7.80;3.65;;;;;;;;;;5037893;28;20113;-88
2021/09/21 00:19:03;;;;;;;7.38;3.72;;;;;;;;;;5033053;28;20120;-88
2021/09/21 00:21:28;;;;;;;8.10;3.92;;;;;;;;;;5041998;28;20118;-87
2021/09/21 00:23:53;;;;;;;8.60;3.97;;;;;;;;;;5042347;28;20480;-87
2021/09/21 00:26:19;;;;;;;8.55;4.28;;;;;;;;;;5039318;28;20021;-87
2021/09/21 00:28:44;;;;;;;9.45;4.40;;;;;;;;;;5043666;28;20036;-88
2021/09/21 00:31:10;;;;;;;10.52;3.97;;;;;;;;;;5036201;28;20049;-88
2021/09/21 00:33:47;;;;;;;7.90;3.70;;;;;;;;;;5043067;28;20111;-87
2021/09/21 00:36:13;;;;;;;14.55;4.15;;;;;;;;;;5035401;28;20454;-88
2021/09/21 00:38:38;;;;;;;7.40;3.85;;;;;;;;;;5041702;28;20067;-87
2021/09/21 00:41:03;;;;;;;6.68;4.30;;;;;;;;;;5034442;28;20030;-88
2021/09/21 00:43:28;;;;;;;7.95;4.22;;;;;;;;;;5041979;28;20127;-87
2021/09/21 00:45:54;;;;;;;6.35;3.75;;;;;;;;;;5037946;28;20033;-88
2021/09/21 00:48:20;;;;;;;7.20;3.85;;;;;;;;;;5039974;28;20488;-87
2021/09/21 00:50:45;;;;;;;7.20;4.07;;;;;;;;;;5037128;28;20537;-88
2021/09/21 00:53:10;;;;;;;8.50;4.40;;;;;;;;;;5040820;28;20059;-87
2021/09/21 00:55:35;;;;;;;9.85;4.05;;;;;;;;;;5036559;28;20128;-86
2021/09/21 00:58:01;;;;;;;9.95;4.03;;;;;;;;;;5038328;28;20026;-88
2021/09/21 01:00:26;;;;;;;8.18;4.38;;;;;;;;;;5042614;28;20017;-87
2021/09/21 01:02:51;;;;;;;8.90;4.70;;;;;;;;;;5039215;28;20024;-88
2021/09/21 01:05:17;;;;;;;6.82;3.95;;;;;;;;;;5040796;28;20025;-88
2021/09/21 01:07:43;;;;;;;7.50;4.50;;;;;;;;;;5035659;28;20021;-87
2021/09/21 01:10:19;;;;;;;9.70;4.53;;;;;;;;;;5039540;28;20393;-88
2021/09/21 01:12:44;;;;;;;5.97;3.85;;;;;;;;;;5036472;28;20021;-88
2021/09/21 01:15:10;;;;;;;7.05;4.40;;;;;;;;;;5039089;28;20116;-88
2021/09/21 01:17:35;;;;;;;8.75;4.38;;;;;;;;;;5041377;28;20029;-88
2021/09/21 01:20:01;;;;;;;9.63;4.30;;;;;;;;;;5037965;28;20021;-88
2021/09/21 01:22:26;;;;;;;8.50;3.58;;;;;;;;;;5040750;28;20453;-88
2021/09/21 01:24:51;;;;;;;11.65;4.50;;;;;;;;;;5039326;28;20033;-87
2021/09/21 01:27:17;;;;;;;7.47;4.57;;;;;;;;;;5039998;28;20108;-88
2021/09/21 01:29:42;;;;;;;8.68;4.40;;;;;;;;;;5038318;28;20025;-88
2021/09/21 01:32:07;;;;;;;6.75;4.38;;;;;;;;;;5038759;28;20043;-87
2021/09/21 01:34:33;;;;;;;7.75;4.80;;;;;;;;;;5035341;28;20040;-88
2021/09/21 01:36:58;;;;;;;9.30;3.97;;;;;;;;;;5039658;28;20404;-88
2021/09/21 01:39:24;;;;;;;7.15;4.30;;;;;;;;;;5040962;28;20026;-88
2021/09/21 01:41:50;;;;;;;8.68;4.93;;;;;;;;;;5040544;28;20016;-87
2021/09/21 01:44:16;;;;;;;10.40;4.35;;;;;;;;;;5039964;28;20611;-88
2021/09/21 01:46:41;;;;;;;9.45;4.65;;;;;;;;;;5032957;28;20022;-87
2021/09/21 01:49:07;;;;;;;9.95;4.88;;;;;;;;;;5044472;28;20028;-88
2021/09/21 01:51:37;;;;;;;8.35;4.40;;;;;;;;;;5038017;28;20017;-87
2021/09/21 01:59:20;;;;;;;10.23;4.90;;;;;;;;;;5041379;28;20380;-88
2021/09/21 02:01:45;;;;;;;9.13;4.60;;;;;;;;;;5042613;28;20009;-88
2021/09/21 02:04:11;;;;;;;6.90;4.40;;;;;;;;;;5040172;28;20036;-88
2021/09/21 02:06:43;;;;;;;9.10;4.40;;;;;;;;;;5043866;28;20019;-88
2021/09/21 02:09:09;;;;;;;8.00;4.32;;;;;;;;;;5039279;28;20017;-88
2021/09/21 02:11:35;;;;;;;7.18;4.45;;;;;;;;;;5038410;28;20060;-88
2021/09/21 02:14:00;;;;;;;7.75;4.60;;;;;;;;;;5041508;28;20040;-88
2021/09/21 02:16:27;;;;;;;9.90;5.43;;;;;;;;;;5036846;28;20021;-88
2021/09/21 02:18:52;;;;;;;8.85;4.20;;;;;;;;;;5041184;28;20461;-88
2021/09/21 02:21:17;;;;;;;7.80;4.63;;;;;;;;;;5036684;28;20028;-88
2021/09/21 02:23:43;;;;;;;8.52;4.40;;;;;;;;;;5038773;28;20036;-88
2021/09/21 02:26:08;;;;;;;9.70;4.75;;;;;;;;;;5034848;28;20090;-88
2021/09/21 02:28:33;;;;;;;7.60;4.72;;;;;;;;;;5037756;28;20034;-88
2021/09/21 02:30:58;;;;;;;7.30;4.55;;;;;;;;;;5034442;28;20029;-88
2021/09/21 02:33:24;;;;;;;8.25;4.45;;;;;;;;;;5038428;28;20032;-88
2021/09/21 02:35:49;;;;;;;14.55;5.28;;;;;;;;;;5040850;28;20010;-88
2021/09/21 02:38:14;;;;;;;8.45;4.75;;;;;;;;;;5036685;28;20369;-88
2021/09/21 02:40:39;;;;;;;11.43;4.88;;;;;;;;;;5038262;28;20416;-88
2021/09/21 02:43:05;;;;;;;9.07;4.82;;;;;;;;;;5036542;28;20503;-87
2021/09/21 02:45:30;;;;;;;10.57;4.50;;;;;;;;;;5037808;28;20083;-88
2021/09/21 02:47:55;;;;;;;11.20;4.85;;;;;;;;;;5033228;28;20056;-88
2021/09/21 02:50:20;;;;;;;9.43;4.38;;;;;;;;;;5039156;28;20451;-88
2021/09/21 02:52:45;;;;;;;9.63;4.57;;;;;;;;;;5039490;28;20358;-88
2021/09/21 02:55:11;;;;;;;7.30;4.70;;;;;;;;;;5037585;28;20634;-87
2021/09/21 02:57:36;;;;;;;10.48;4.63;;;;;;;;;;5039965;28;20020;-88
2021/09/21 03:00:08;;;;;;;10.38;5.45;;;;;;;;;;5035566;28;20021;-87
2021/09/21 03:02:34;;;;;;;11.75;5.13;;;;;;;;;;5037357;28;20053;-88
2021/09/21 03:05:04;;;;;;;10.48;4.60;;;;;;;;;;5029673;28;20469;-87
2021/09/21 03:07:42;;;;;;;8.85;4.55;;;;;;;;;;5039097;28;20036;-87
2021/09/21 03:17:47;;;;;;;10.82;5.10;;;;;;;;;;5029532;28;20432;-88
2021/09/21 03:20:12;;;;;;;8.45;4.53;;;;;;;;;;5038838;28;20017;-87
2021/09/21 03:22:38;;;;;;;9.25;4.65;;;;;;;;;;5035432;28;20509;-88
2021/09/21 03:25:03;;;;;;;11.63;4.78;;;;;;;;;;5037752;28;20052;-88
2021/09/21 03:27:28;;;;;;;9.40;4.57;;;;;;;;;;5040132;28;20028;-87
2021/09/21 03:29:54;;;;;;;7.40;4.57;;;;;;;;;;5036215;28;20032;-88
2021/09/21 03:32:19;;;;;;;8.73;4.80;;;;;;;;;;5041827;28;20025;-88
2021/09/21 03:34:44;;;;;;;7.50;4.55;;;;;;;;;;5035410;28;20029;-88
2021/09/21 03:37:10;;;;;;;10.90;4.95;;;;;;;;;;5038144;28;20366;-88
2021/09/21 03:39:35;;;;;;;11.43;4.78;;;;;;;;;;5036972;28;20056;-88
2021/09/21 03:42:01;;;;;;;8.00;4.85;;;;;;;;;;5038831;28;20057;-88
2021/09/21 03:44:26;;;;;;;8.80;5.22;;;;;;;;;;5035726;28;20025;-88
2021/09/21 03:46:52;;;;;;;7.82;4.57;;;;;;;;;;5036777;28;20022;-88
2021/09/21 03:49:17;;;;;;;8.65;5.03;;;;;;;;;;5032230;28;20030;-88
2021/09/21 03:51:43;;;;;;;9.88;4.70;;;;;;;;;;5038423;28;20021;-87
2021/09/21 03:54:09;;;;;;;11.93;5.53;;;;;;;;;;5040837;28;20065;-88
2021/09/21 03:56:35;;;;;;;7.75;5.07;;;;;;;;;;5040710;28;20082;-88
2021/09/21 03:59:01;;;;;;;16.83;5.13;;;;;;;;;;5042989;28;20022;-87
2021/09/21 04:01:26;;;;;;;9.20;5.22;;;;;;;;;;5039612;28;20071;-88
2021/09/21 04:03:51;;;;;;;9.35;4.70;;;;;;;;;;5041311;28;20022;-88
2021/09/21 04:06:16;;;;;;;9.23;5.22;;;;;;;;;;5041285;28;20032;-88
2021/09/21 04:08:41;;;;;;;7.22;4.80;;;;;;;;;;5041931;28;20087;-87
2021/09/21 04:11:07;;;;;;;10.15;4.80;;;;;;;;;;5034817;28;20116;-88
2021/09/21 04:13:32;;;;;;;11.95;5.13;;;;;;;;;;5042040;28;20025;-87
2021/09/21 04:15:57;;;;;;;7.70;4.65;;;;;;;;;;5039650;28;20013;-88
2021/09/21 04:18:22;;;;;;;7.80;4.82;;;;;;;;;;5040479;28;20021;-88
2021/09/21 04:20:47;;;;;;;14.20;5.22;;;;;;;;;;5037114;28;20115;-88
2021/09/21 04:23:13;;;;;;;8.18;4.50;;;;;;;;;;5041379;28;20461;-88
2021/09/21 04:25:38;;;;;;;9.48;5.35;;;;;;;;;;5037354;28;20035;-88
2021/09/21 04:28:03;;;;;;;11.32;5.20;;;;;;;;;;5039311;28;20030;-88
2021/09/21 04:30:29;;;;;;;9.02;4.80;;;;;;;;;;5042198;28;20504;-87
2021/09/21 04:32:54;;;;;;;9.30;5.18;;;;;;;;;;5039177;28;20025;-88
2021/09/21 04:35:19;;;;;;;9.07;5.32;;;;;;;;;;5041046;28;20435;-88
2021/09/21 04:37:45;;;;;;;10.35;5.90;;;;;;;;;;5037947;28;20029;-87
2021/09/21 04:40:10;;;;;;;14.55;5.82;;;;;;;;;;5040225;28;20064;-88
2021/09/21 04:42:35;;;;;;;13.00;5.13;;;;;;;;;;5037944;28;20017;-88
2021/09/21 04:45:01;;;;;;;11.30;5.75;;;;;;;;;;5039556;28;20136;-88
2021/09/21 04:47:26;;;;;;;10.48;5.35;;;;;;;;;;5042184;28;20025;-88
2021/09/21 04:49:51;;;;;;;8.60;5.05;;;;;;;;;;5039876;28;20020;-88
2021/09/21 04:52:17;;;;;;;9.85;5.68;;;;;;;;;;5041179;28;20033;-88
2021/09/21 04:54:42;;;;;;;11.20;5.20;;;;;;;;;;5039030;28;20027;-87
2021/09/21 04:57:07;;;;;;;9.73;4.72;;;;;;;;;;5040520;28;20087;-88
2021/09/21 04:59:33;;;;;;;11.32;6.00;;;;;;;;;;5036429;28;20021;-88
2021/09/21 05:01:58;;;;;;;12.38;5.47;;;;;;;;;;5040955;28;20021;-88
2021/09/21 05:04:23;;;;;;;12.35;5.45;;;;;;;;;;5033871;28;20064;-87
2021/09/21 05:06:48;;;;;;;9.70;5.82;;;;;;;;;;5042864;28;20017;-88
2021/09/21 05:09:15;;;;;;;9.68;5.80;;;;;;;;;;5038076;28;20025;-88
2021/09/21 05:11:40;;;;;;;13.38;6.20;;;;;;;;;;5038915;28;20067;-88
2021/09/21 05:14:05;;;;;;;10.68;5.93;;;;;;;;;;5038911;28;20021;-88
2021/09/21 05:16:32;;;;;;;11.88;5.97;;;;;;;;;;5041117;28;20017;-88
2021/09/21 05:18:57;;;;;;;9.73;5.68;;;;;;;;;;5036635;28;20024;-88
2021/09/21 05:21:22;;;;;;;18.30;5.90;;;;;;;;;;5039009;28;20470;-88
2021/09/21 05:23:47;;;;;;;10.75;6.18;;;;;;;;;;5035199;28;20079;-87
2021/09/21 05:26:12;;;;;;;12.20;6.10;;;;;;;;;;5038914;28;20048;-87
2021/09/21 05:28:38;;;;;;;10.93;5.78;;;;;;;;;;5040990;28;20477;-88
2021/09/21 05:31:03;;;;;;;10.68;6.13;;;;;;;;;;5036246;28;20023;-87
2021/09/21 05:33:28;;;;;;;11.40;6.22;;;;;;;;;;5040467;28;20071;-88
2021/09/21 05:35:54;;;;;;;12.05;5.88;;;;;;;;;;5037728;28;20107;-88
2021/09/21 05:38:19;;;;;;;11.20;5.90;;;;;;;;;;5040173;28;20084;-88
2021/09/21 05:40:44;;;;;;;14.27;6.13;;;;;;;;;;5034934;28;20028;-88
2021/09/21 05:43:10;;;;;;;13.30;5.82;;;;;;;;;;5040747;28;20403;-87
2021/09/21 05:45:35;;;;;;;13.95;5.63;;;;;;;;;;5033217;28;20365;-88
2021/09/21 05:48:01;;;;;;;10.93;5.15;;;;;;;;;;5040461;28;20033;-87
2021/09/21 05:50:26;;;;;;;10.43;5.95;;;;;;;;;;5041039;28;20029;-88
2021/09/21 05:52:51;;;;;;;11.77;5.45;;;;;;;;;;5039119;28;20021;-87
2021/09/21 05:55:16;;;;;;;10.13;5.53;;;;;;;;;;5041594;28;20040;-88
2021/09/21 05:57:44;;;;;;;10.20;5.97;;;;;;;;;;5034836;28;20453;-87
2021/09/21 06:00:10;;;;;;;10.68;5.90;;;;;;;;;;5041995;28;20455;-87
2021/09/21 06:02:35;;;;;;;12.38;5.90;;;;;;;;;;5032155;28;20408;-87
2021/09/21 06:05:00;;;;;;;9.52;5.68;;;;;;;;;;5040293;28;20028;-88
2021/09/21 06:07:26;;;;;;;15.98;7.38;;;;;;;;;;5033438;28;20083;-88
2021/09/21 06:09:51;;;;;;;10.93;6.15;;;;;;;;;;5042217;28;20030;-88
2021/09/21 06:12:16;;;;;;;8.82;5.57;;;;;;;;;;5037655;28;20032;-88
2021/09/21 06:14:41;;;;;;;11.40;6.55;;;;;;;;;;5033979;28;20017;-87
2021/09/21 06:17:07;;;;;;;10.70;6.10;;;;;;;;;;5034795;28;20104;-88
2021/09/21 06:19:32;;;;;;;14.68;6.78;;;;;;;;;;5032745;28;20017;-87
2021/09/21 06:21:57;;;;;;;12.30;7.03;;;;;;;;;;5042477;28;20021;-87
2021/09/21 06:24:22;;;;;;;15.10;6.72;;;;;;;;;;5035002;28;20029;-88
2021/09/21 06:26:48;;;;;;;11.38;6.32;;;;;;;;;;5039678;28;20369;-87
2021/09/21 06:29:15;;;;;;;10.93;6.28;;;;;;;;;;5036012;28;20032;-87
2021/09/21 06:31:40;;;;;;;10.80;6.80;;;;;;;;;;5030769;28;20018;-87
2021/09/21 06:34:05;;;;;;;12.55;6.50;;;;;;;;;;5042208;28;20025;-87
2021/09/21 06:36:30;;;;;;;14.52;6.63;;;;;;;;;;5032078;28;20513;-87
2021/09/21 06:38:56;;;;;;;17.88;6.93;;;;;;;;;;5032363;28;20017;-87
2021/09/21 06:41:21;;;;;;;16.33;7.38;;;;;;;;;;5040473;28;20472;-87
2021/09/21 06:43:46;;;;;;;17.58;7.45;;;;;;;;;;5040466;28;20017;-87
2021/09/21 06:46:12;;;;;;;13.02;7.47;;;;;;;;;;5038171;28;20028;-87
2021/09/21 06:48:39;;;;;;;12.95;7.63;;;;;;;;;;5040471;28;20032;-86
2021/09/21 06:51:05;;;;;;;14.57;7.70;;;;;;;;;;5047810;28;20029;-87
2021/09/21 06:53:30;;;;;;;20.35;9.43;;;;;;;;;;5033632;28;20095;-87
2021/09/21 06:55:55;;;;;;;19.20;8.38;;;;;;;;;;5032835;28;20056;-87
2021/09/21 06:58:21;;;;;;;15.90;8.45;;;;;;;;;;5032842;28;20022;-87
2021/09/21 07:00:46;;;;;;;16.80;7.93;;;;;;;;;;5031571;28;20477;-87
2021/09/21 07:03:12;;;;;;;23.58;8.75;;;;;;;;;;5038385;28;20389;-87
2021/09/21 07:05:37;;;;;;;18.23;9.07;;;;;;;;;;5041032;28;20059;-87
2021/09/21 07:08:02;;;;;;;15.32;8.32;;;;;;;;;;5035202;28;20104;-87
2021/09/21 07:10:27;;;;;;;18.27;8.75;;;;;;;;;;5037749;28;20013;-87
2021/09/21 07:12:53;;;;;;;16.42;8.25;;;;;;;;;;5037439;28;20026;-88
2021/09/21 07:15:22;;;;;;;21.27;8.32;;;;;;;;;;5032730;28;20064;-87
2021/09/21 07:17:48;;;;;;;15.20;8.45;;;;;;;;;;5031957;28;20040;-87
2021/09/21 07:20:13;;;;;;;19.05;9.27;;;;;;;;;;5035870;28;20022;-87
2021/09/21 07:22:39;;;;;;;17.75;8.30;;;;;;;;;;5032047;28;20021;-87
2021/09/21 07:25:04;;;;;;;15.55;8.55;;;;;;;;;;5033064;28;20022;-87
2021/09/21 07:27:29;;;;;;;18.23;8.85;;;;;;;;;;5034932;28;20020;-87
2021/09/21 07:29:55;;;;;;;19.15;8.98;;;;;;;;;;5038775;28;20033;-87
2021/09/21 07:32:20;;;;;;;21.48;8.93;;;;;;;;;;5034501;28;20052;-88
2021/09/21 07:34:45;;;;;;;19.17;9.13;;;;;;;;;;5035991;28;20376;-88
2021/09/21 07:37:13;;;;;;;16.25;7.63;;;;;;;;;;5038907;28;20071;-88
2021/09/21 07:39:38;;;;;;;17.45;7.78;;;;;;;;;;5033496;28;20020;-87
2021/09/21 07:42:03;;;;;;;24.67;8.27;;;;;;;;;;5031357;28;20472;-88
2021/09/21 07:44:28;;;;;;;16.20;8.20;;;;;;;;;;5039271;28;20009;-88
2021/09/21 07:46:54;;;;;;;13.02;7.53;;;;;;;;;;5040339;28;20090;-88
2021/09/21 07:49:19;;;;;;;20.92;7.45;;;;;;;;;;5034768;28;20060;-87
2021/09/21 07:51:45;;;;;;;15.88;7.43;;;;;;;;;;5034264;28;20025;-87
2021/09/21 07:54:14;;;;;;;19.52;8.20;;;;;;;;;;5033824;28;20036;-88
2021/09/21 07:56:39;;;;;;;14.73;7.20;;;;;;;;;;5033429;28;20417;-88
2021/09/21 07:59:05;;;;;;;12.90;5.95;;;;;;;;;;5032085;28;20172;-87
2021/09/21 08:01:31;;;;;;;17.85;7.65;;;;;;;;;;5038153;28;20059;-87
2021/09/21 08:03:56;;;;;;;18.88;8.68;;;;;;;;;;5042283;28;20067;-88
2021/09/21 08:06:22;;;;;;;15.75;6.93;;;;;;;;;;5035688;28;20120;-87
2021/09/21 08:08:48;;;;;;;16.08;7.28;;;;;;;;;;5041645;28;20028;-88
2021/09/21 08:11:13;;;;;;;15.80;7.30;;;;;;;;;;5037504;28;20358;-88
2021/09/21 08:13:38;;;;;;;14.88;7.15;;;;;;;;;;5033487;28;20397;-88
2021/09/21 08:16:03;;;;;;;12.73;7.28;;;;;;;;;;5033067;28;20386;-88
2021/09/21 08:18:29;;;;;;;15.45;7.18;;;;;;;;;;5031070;28;20473;-88
2021/09/21 08:20:54;;;;;;;10.77;6.20;;;;;;;;;;5036746;28;20028;-88
2021/09/21 08:23:19;;;;;;;11.98;5.68;;;;;;;;;;5038359;28;20025;-88
2021/09/21 08:25:45;;;;;;;13.18;6.07;;;;;;;;;;5031323;28;20116;-88
2021/09/21 08:28:10;;;;;;;14.35;6.32;;;;;;;;;;5038997;28;20103;-88
2021/09/21 08:30:35;;;;;;;10.77;5.72;;;;;;;;;;5033057;28;20079;-88
2021/09/21 08:33:01;;;;;;;10.05;5.13;;;;;;;;;;5039222;28;20379;-88
2021/09/21 08:35:27;;;;;;;9.63;5.45;;;;;;;;;;5040904;28;20075;-88
2021/09/21 08:37:52;;;;;;;9.48;5.65;;;;;;;;;;5039290;28;20021;-88
2021/09/21 08:40:17;;;;;;;11.65;6.07;;;;;;;;;;5033117;28;20018;-88
2021/09/21 08:42:42;;;;;;;11.05;5.75;;;;;;;;;;5040092;28;20033;-88
2021/09/21 08:45:08;;;;;;;10.57;4.97;;;;;;;;;;5043056;28;20147;-88
2021/09/21 08:47:33;;;;;;;13.27;5.40;;;;;;;;;;5035453;28;20041;-88
2021/09/21 08:49:58;;;;;;;10.27;5.78;;;;;;;;;;5045465;28;20070;-87
2021/09/21 08:52:24;;;;;;;9.10;5.32;;;;;;;;;;5034668;28;20029;-88
2021/09/21 08:54:49;;;;;;;10.68;5.70;;;;;;;;;;5039955;28;20017;-88
2021/09/21 08:57:15;;;;;;;13.00;5.60;;;;;;;;;;5034857;28;20127;-88
2021/09/21 08:59:40;;;;;;;13.50;5.35;;;;;;;;;;5041584;28;20017;-88
2021/09/21 09:02:07;;;;;;;13.23;5.32;;;;;;;;;;5036420;28;20025;-87
2021/09/21 09:04:32;;;;;;;10.10;4.82;;;;;;;;;;5038439;28;20492;-88
2021/09/21 09:06:58;;;;;;;9.82;5.22;;;;;;;;;;5046704;28;20021;-88
2021/09/21 09:09:25;;;;;;;8.45;4.75;;;;;;;;;;5041532;28;20103;-87
2021/09/21 09:11:51;;;;;;;10.30;4.63;;;;;;;;;;5030248;28;20033;-87
2021/09/21 09:14:21;;;;;;;8.82;4.00;;;;;;;;;;5041494;28;20041;-88
2021/09/21 09:16:46;;;;;;;9.18;4.60;;;;;;;;;;5042881;28;20488;-88
2021/09/21 09:19:13;;;;;;;14.70;4.93;;;;;;;;;;5041797;28;20051;-88
2021/09/21 09:21:39;;;;;;;9.88;4.65;;;;;;;;;;5040851;28;20048;-88
2021/09/21 09:24:05;;;;;;;8.90;4.45;;;;;;;;;;5038761;28;20496;-88
2021/09/21 09:26:33;;;;;;;7.82;4.20;;;;;;;;;;5040199;28;20396;-88
2021/09/21 09:28:58;;;;;;;7.80;4.32;;;;;;;;;;5034132;28;20424;-88
2021/09/21 09:31:24;;;;;;;9.85;4.05;;;;;;;;;;5054817;28;20030;-88
2021/09/21 09:33:50;;;;;;;13.00;4.13;;;;;;;;;;5033613;28;20028;-88
2021/09/21 09:36:23;;;;;;;9.65;4.50;;;;;;;;;;5042455;28;20030;-89
2021/09/21 09:38:57;;;;;;;8.95;3.97;;;;;;;;;;5042344;28;20021;-88
2021/09/21 09:41:23;;;;;;;12.70;3.72;;;;;;;;;;5066020;28;20029;-88
2021/09/21 09:43:48;;;;;;;5.82;3.45;;;;;;;;;;5040568;28;20120;-88
2021/09/21 09:46:15;;;;;;;6.43;3.33;;;;;;;;;;5038629;28;20029;-88
2021/09/21 09:48:41;;;;;;;8.32;3.70;;;;;;;;;;5039321;28;20021;-88
2021/09/21 09:51:06;;;;;;;7.53;3.55;;;;;;;;;;5035856;28;20028;-88
2021/09/21 09:53:31;;;;;;;6.78;3.80;;;;;;;;;;5041651;28;20066;-88
2021/09/21 09:55:57;;;;;;;6.25;2.97;;;;;;;;;;5033320;28;20022;-88
2021/09/21 09:58:23;;;;;;;6.78;2.92;;;;;;;;;;5049030;28;20032;-88
2021/09/21 10:00:56;;;;;;;6.80;3.13;;;;;;;;;;5042327;28;20010;-88
2021/09/21 10:03:22;;;;;;;4.35;2.70;;;;;;;;;;5039664;28;20032;-88
2021/09/21 10:05:49;;;;;;;7.15;3.55;;;;;;;;;;5038790;28;20101;-88
2021/09/21 10:08:14;;;;;;;5.28;3.10;;;;;;;;;;5037227;28;20029;-87
2021/09/21 10:10:40;;;;;;;6.57;2.60;;;;;;;;;;5035727;28;20523;-88
2021/09/21 10:13:10;;;;;;;10.88;3.65;;;;;;;;;;5037711;28;20024;-88
2021/09/21 10:15:36;;;;;;;7.00;3.40;;;;;;;;;;5042440;28;20464;-88
2021/09/21 10:18:02;;;;;;;6.63;3.20;;;;;;;;;;5038171;28;20096;-88
2021/09/21 10:20:30;;;;;;;9.38;3.15;;;;;;;;;;5040861;28;20384;-87
2021/09/21 10:22:55;;;;;;;5.97;2.97;;;;;;;;;;5036689;28;20159;-88
2021/09/21 10:25:28;;;;;;;8.23;3.67;;;;;;;;;;5038213;28;20112;-87
2021/09/21 10:27:53;;;;;;;6.50;4.35;;;;;;;;;;5035457;28;20473;-87
2021/09/21 10:30:21;;;;;;;6.15;3.53;;;;;;;;;;5039043;28;20033;-88
2021/09/21 10:32:48;;;;;;;8.00;3.65;;;;;;;;;;5034715;28;20568;-88
2021/09/21 10:35:17;;;;;;;4.90;3.00;;;;;;;;;;5038491;28;20480;-88
2021/09/21 10:37:42;;;;;;;6.82;3.38;;;;;;;;;;5041498;28;20380;-87
2021/09/21 10:40:08;;;;;;;8.10;3.65;;;;;;;;;;5040446;28;20017;-88
2021/09/21 10:42:34;;;;;;;5.82;3.20;;;;;;;;;;5041417;28;20021;-87
2021/09/21 10:45:01;;;;;;;5.93;3.50;;;;;;;;;;5036845;28;20032;-88
2021/09/21 10:47:31;;;;;;;8.25;3.35;;;;;;;;;;5037860;28;20029;-87
2021/09/21 10:50:16;;;;;;;5.88;3.08;;;;;;;;;;5035066;28;20048;-88
2021/09/21 10:52:42;;;;;;;5.95;3.33;;;;;;;;;;5037109;28;20025;-88
2021/09/21 10:55:08;;;;;;;6.05;3.30;;;;;;;;;;5033788;28;20025;-88
2021/09/21 10:57:35;;;;;;;7.53;3.00;;;;;;;;;;5037953;28;20374;-88
2021/09/21 11:00:07;;;;;;;6.93;3.20;;;;;;;;;;5039482;28;20017;-88
2021/09/21 11:02:35;;;;;;;5.80;2.83;;;;;;;;;;5036839;28;20043;-88
2021/09/21 11:05:00;;;;;;;6.32;3.13;;;;;;;;;;5038013;28;20317;-88
2021/09/21 11:07:26;;;;;;;5.18;2.67;;;;;;;;;;5035406;28;20025;-87
2021/09/21 11:09:52;;;;;;;4.25;2.70;;;;;;;;;;5036458;28;20108;-87
2021/09/21 11:12:23;;;;;;;8.85;2.78;;;;;;;;;;5040643;28;20097;-88
2021/09/21 11:14:51;;;;;;;4.78;2.60;;;;;;;;;;5034594;28;20350;-89
2021/09/21 11:17:19;;;;;;;5.00;2.67;;;;;;;;;;5039505;28;20024;-88
2021/09/21 11:19:44;;;;;;;4.57;2.50;;;;;;;;;;5035125;28;20032;-88
2021/09/21 11:22:12;;;;;;;7.95;2.58;;;;;;;;;;5037440;28;20018;-88
2021/09/21 11:24:38;;;;;;;5.90;2.72;;;;;;;;;;5029543;28;20353;-88
2021/09/21 11:27:05;;;;;;;4.78;2.58;;;;;;;;;;5031339;28;20033;-88
2021/09/21 11:29:31;;;;;;;7.90;2.70;;;;;;;;;;5031515;28;20376;-88
2021/09/21 11:31:56;;;;;;;3.10;2.05;;;;;;;;;;5033030;28;20079;-88
2021/09/21 11:34:28;;;;;;;4.05;2.03;;;;;;;;;;5039700;28;20600;-88
2021/09/21 11:36:53;;;;;;;3.60;2.35;;;;;;;;;;5033522;28;20108;-88
2021/09/21 11:39:19;;;;;;;3.40;2.20;;;;;;;;;;5033517;28;20536;-88
2021/09/21 11:41:50;;;;;;;6.35;2.17;;;;;;;;;;5032158;28;20116;-87
2021/09/21 11:44:15;;;;;;;4.70;2.30;;;;;;;;;;5033009;28;20083;-88
2021/09/21 11:46:41;;;;;;;4.97;2.13;;;;;;;;;;5035356;28;20029;-88
2021/09/21 11:49:06;;;;;;;7.30;1.83;;;;;;;;;;5033847;28;20087;-88
2021/09/21 11:51:34;;;;;;;3.95;1.80;;;;;;;;;;5036064;28;20473;-88
2021/09/21 11:54:00;;;;;;;4.68;2.22;;;;;;;;;;5033324;28;20033;-88
2021/09/21 11:56:25;;;;;;;3.50;2.00;;;;;;;;;;5039861;28;20469;-88
2021/09/21 11:58:56;;;;;;;5.20;2.45;;;;;;;;;;5035460;28;20439;-87
2021/09/21 12:01:21;;;;;;;4.45;1.90;;;;;;;;;;5037867;28;20028;-88
2021/09/21 12:03:50;;;;;;;3.97;1.90;;;;;;;;;;5036637;28;20025;-88
2021/09/21 12:06:16;;;;;;;3.17;1.67;;;;;;;;;;5035707;28;20013;-88
2021/09/21 12:08:42;;;;;;;6.18;1.98;;;;;;;;;;5040155;28;20453;-88
2021/09/21 12:11:09;;;;;;;3.20;1.85;;;;;;;;;;5038913;28;20021;-88
2021/09/21 12:13:35;;;;;;;3.78;1.67;;;;;;;;;;5034860;28;20104;-88
2021/09/21 12:16:01;;;;;;;5.47;1.92;;;;;;;;;;5044048;28;20140;-88
2021/09/21 12:18:27;;;;;;;3.78;1.88;;;;;;;;;;5036743;28;20028;-88
2021/09/21 12:20:54;;;;;;;3.55;2.05;;;;;;;;;;5043164;28;20017;-88
2021/09/21 12:23:21;;;;;;;4.15;2.17;;;;;;;;;;5035767;28;20118;-88
2021/09/21 12:25:46;;;;;;;3.72;2.03;;;;;;;;;;5037882;28;20028;-88
2021/09/21 12:28:12;;;;;;;4.75;2.03;;;;;;;;;;5046493;28;20025;-88
2021/09/21 12:30:39;;;;;;;4.28;1.70;;;;;;;;;;5042333;28;20079;-88
2021/09/21 12:33:06;;;;;;;2.97;1.40;;;;;;;;;;5043547;28;20029;-87
2021/09/21 12:35:33;;;;;;;2.88;1.70;;;;;;;;;;5034882;28;20024;-87
2021/09/21 12:38:10;;;;;;;6.85;2.03;;;;;;;;;;5044467;28;20372;-87
2021/09/21 12:40:47;;;;;;;3.33;1.90;;;;;;;;;;5035861;28;20017;-87
2021/09/21 12:43:15;;;;;;;3.65;1.80;;;;;;;;;;5063313;28;20025;-87
2021/09/21 12:45:42;;;;;;;4.18;2.00;;;;;;;;;;5034181;28;20021;-87
2021/09/21 12:48:07;;;;;;;4.30;1.80;;;;;;;;;;5034787;28;20030;-87
2021/09/21 12:50:38;;;;;;;2.97;1.80;;;;;;;;;;5039819;28;20069;-87
2021/09/21 12:53:03;;;;;;;6.05;1.77;;;;;;;;;;5041344;28;20078;-88
2021/09/21 12:55:33;;;;;;;4.10;1.63;;;;;;;;;;5037459;28;20479;-88
2021/09/21 12:57:59;;;;;;;4.47;1.65;;;;;;;;;;5037137;28;20479;-88
2021/09/21 13:00:24;;;;;;;4.47;1.83;;;;;;;;;;5036229;28;20105;-88
2021/09/21 13:02:51;;;;;;;5.55;1.95;;;;;;;;;;5036352;28;20075;-87
2021/09/21 13:05:16;;;;;;;3.55;1.60;;;;;;;;;;5041721;28;20033;-88
2021/09/21 13:07:41;;;;;;;2.83;1.30;;;;;;;;;;5034916;28;20512;-88
2021/09/21 13:10:07;;;;;;;4.35;1.40;;;;;;;;;;5035814;28;20025;-88
2021/09/21 13:12:33;;;;;;;4.63;1.67;;;;;;;;;;5037169;28;20022;-88
2021/09/21 13:14:58;;;;;;;4.28;1.88;;;;;;;;;;5040911;28;20017;-88
2021/09/21 13:17:23;;;;;;;4.70;1.73;;;;;;;;;;5038213;28;20096;-87
2021/09/21 13:19:49;;;;;;;4.75;2.08;;;;;;;;;;5040500;28;20097;-88
2021/09/21 13:22:14;;;;;;;4.65;1.80;;;;;;;;;;5035686;28;20438;-88
2021/09/21 13:24:39;;;;;;;4.18;1.40;;;;;;;;;;5038544;28;20087;-88
2021/09/21 13:27:04;;;;;;;4.70;1.25;;;;;;;;;;5040269;28;20108;-88
2021/09/21 13:29:30;;;;;;;2.63;1.40;;;;;;;;;;5034029;28;20020;-88
2021/09/21 13:31:55;;;;;;;3.53;1.50;;;;;;;;;;5033177;28;20480;-88
2021/09/21 13:34:20;;;;;;;5.35;1.88;;;;;;;;;;5032888;28;20491;-88
2021/09/21 13:36:45;;;;;;;6.25;2.10;;;;;;;;;;5041538;28;20037;-88
2021/09/21 13:39:11;;;;;;;2.97;1.60;;;;;;;;;;5037495;28;20021;-87
2021/09/21 13:41:40;;;;;;;4.53;2.08;;;;;;;;;;5039796;28;20456;-88
2021/09/21 13:44:05;;;;;;;3.55;1.77;;;;;;;;;;5032891;28;20021;-88
2021/09/21 13:46:30;;;;;;;5.32;1.70;;;;;;;;;;5042413;28;20112;-88
2021/09/21 13:48:55;;;;;;;2.60;1.33;;;;;;;;;;5033232;28;20025;-88
2021/09/21 13:51:20;;;;;;;3.95;1.30;;;;;;;;;;5037139;28;20052;-88
2021/09/21 13:53:46;;;;;;;2.33;1.40;;;;;;;;;;5039972;28;20025;-88
2021/09/21 13:56:11;;;;;;;4.13;1.40;;;;;;;;;;5037945;28;20472;-88
2021/09/21 13:58:36;;;;;;;2.67;1.42;;;;;;;;;;5041491;28;20029;-88
2021/09/21 14:01:02;;;;;;;4.43;1.27;;;;;;;;;;5033134;28;20021;-87
2021/09/21 14:03:29;;;;;;;3.40;1.50;;;;;;;;;;5043087;28;20039;-87
2021/09/21 14:05:55;;;;;;;6.10;1.50;;;;;;;;;;5034325;28;20440;-87
2021/09/21 14:08:20;;;;;;;3.80;1.55;;;;;;;;;;5041668;28;20032;-88
2021/09/21 14:10:45;;;;;;;3.20;1.63;;;;;;;;;;5038739;28;20028;-89
2021/09/21 14:13:10;;;;;;;3.67;1.50;;;;;;;;;;5038885;28;20033;-88
2021/09/21 14:15:36;;;;;;;6.65;2.10;;;;;;;;;;5036204;28;20032;-88
2021/09/21 14:18:01;;;;;;;4.65;1.80;;;;;;;;;;5037088;28;20469;-88
2021/09/21 14:20:27;;;;;;;3.67;2.08;;;;;;;;;;5042606;28;20160;-88
2021/09/21 14:22:52;;;;;;;3.53;1.90;;;;;;;;;;5037803;28;20036;-88
2021/09/21 14:25:18;;;;;;;3.20;1.83;;;;;;;;;;5040390;28;20028;-88
2021/09/21 14:27:43;;;;;;;3.42;2.08;;;;;;;;;;5036735;28;20017;-89
2021/09/21 14:30:12;;;;;;;4.05;2.05;;;;;;;;;;5033442;28;20029;-88
2021/09/21 14:32:38;;;;;;;3.50;1.75;;;;;;;;;;5038362;28;20033;-88
2021/09/21 14:35:03;;;;;;;6.18;1.60;;;;;;;;;;5038450;28;20033;-88
2021/09/21 14:37:29;;;;;;;7.72;1.67;;;;;;;;;;5033969;28;20026;-88
2021/09/21 14:39:54;;;;;;;4.60;1.50;;;;;;;;;;5033536;28;20053;-88
2021/09/21 14:42:19;;;;;;;3.13;1.63;;;;;;;;;;5033662;28;20108;-88
2021/09/21 14:44:44;;;;;;;5.20;2.13;;;;;;;;;;5040522;28;20029;-88